This is the latest recevied weather packets stored in our database for station/object SQ6PCH-10. If no packets are shown the sender has not sent any weather packets the latest 1 day(s).
| Time | Temp. | Humidity | Pressure | Rain* | Wind** | Luminosity | Snow |
|---|---|---|---|---|---|---|---|
| 1778057980 | 20° C | 50% | 991.5 hPa | - | - | - | - |
| 1778057380 | 19.44° C | 51% | 991.4 hPa | - | - | - | - |
| 1778054979 | 19.44° C | 55% | 991.3 hPa | - | - | - | - |
| 1778054379 | 18.33° C | 57% | 991.2 hPa | - | - | - | - |
| 1778053779 | 20° C | 52% | 991.2 hPa | - | - | - | - |
| 1778052578 | 17.78° C | 59% | 991 hPa | - | - | - | - |
| 1778051978 | 18.33° C | 60% | 990.9 hPa | - | - | - | - |
| 1778051378 | 17.22° C | 61% | 990.8 hPa | - | - | - | - |
| 1778050778 | 16.67° C | 65% | 990.8 hPa | - | - | - | - |
| 1778050178 | 16.11° C | 67% | 990.9 hPa | - | - | - | - |
| 1778048977 | 15° C | 69% | 990.6 hPa | - | - | - | - |
| 1778048377 | 15° C | 70% | 990.8 hPa | - | - | - | - |
| 1778047777 | 14.44° C | 71% | 990.8 hPa | - | - | - | - |
| 1778045976 | 13.89° C | 74% | 990.4 hPa | - | - | - | - |
| 1778045376 | 13.89° C | 74% | 990.3 hPa | - | - | - | - |
| 1778044776 | 13.33° C | 74% | 990.4 hPa | - | - | - | - |
| 1778044176 | 13.33° C | 74% | 990.3 hPa | - | - | - | - |
| 1778042375 | 12.22° C | 80% | 990 hPa | - | - | - | - |
| 1778041775 | 12.22° C | 82% | 990 hPa | - | - | - | - |
| 1778041175 | 11.67° C | 82% | 990 hPa | - | - | - | - |
| 1778040575 | 11.67° C | 83% | 990 hPa | - | - | - | - |
| 1778039974 | 11.67° C | 84% | 989.7 hPa | - | - | - | - |
| 1778039374 | 11.11° C | 85% | 989.6 hPa | - | - | - | - |
| 1778038774 | 10.56° C | 86% | 989.3 hPa | - | - | - | - |
| 1778038174 | 10.56° C | 86% | 989.3 hPa | - | - | - | - |
* Rain since midnight (hover to see other rain measurements)
** Current wind speed in m/s (hover to see current wind gust speed)